sensor_id;sensor_type;location;lat;lon;timestamp;temperature;humidity
11826;DHT22;5970;48.094;11.496;2023-03-01T00:01:03;2.20;93.30
11826;DHT22;5970;48.094;11.496;2023-03-01T00:03:30;2.20;93.20
11826;DHT22;5970;48.094;11.496;2023-03-01T00:05:58;2.20;93.30
11826;DHT22;5970;48.094;11.496;2023-03-01T00:08:25;2.20;93.20
11826;DHT22;5970;48.094;11.496;2023-03-01T00:11:05;2.20;93.30
11826;DHT22;5970;48.094;11.496;2023-03-01T00:13:32;2.20;93.20
11826;DHT22;5970;48.094;11.496;2023-03-01T00:16:00;2.20;93.20
11826;DHT22;5970;48.094;11.496;2023-03-01T00:18:27;2.20;93.30
11826;DHT22;5970;48.094;11.496;2023-03-01T00:20:54;2.20;93.50
11826;DHT22;5970;48.094;11.496;2023-03-01T00:23:21;2.30;93.30
11826;DHT22;5970;48.094;11.496;2023-03-01T00:25:49;2.30;93.20
11826;DHT22;5970;48.094;11.496;2023-03-01T00:28:16;2.40;93.20
11826;DHT22;5970;48.094;11.496;2023-03-01T00:30:42;2.40;93.20
11826;DHT22;5970;48.094;11.496;2023-03-01T00:33:09;2.40;93.20
11826;DHT22;5970;48.094;11.496;2023-03-01T00:35:36;2.40;93.10
11826;DHT22;5970;48.094;11.496;2023-03-01T00:38:03;2.30;93.20
11826;DHT22;5970;48.094;11.496;2023-03-01T00:40:31;2.30;93.30
11826;DHT22;5970;48.094;11.496;2023-03-01T00:42:58;2.20;93.30
11826;DHT22;5970;48.094;11.496;2023-03-01T00:45:25;2.10;93.40
11826;DHT22;5970;48.094;11.496;2023-03-01T00:47:52;2.10;93.50
11826;DHT22;5970;48.094;11.496;2023-03-01T00:50:19;2.20;93.50
11826;DHT22;5970;48.094;11.496;2023-03-01T00:52:46;2.30;93.40
11826;DHT22;5970;48.094;11.496;2023-03-01T00:55:12;2.40;93.30
11826;DHT22;5970;48.094;11.496;2023-03-01T00:57:39;2.40;93.10
11826;DHT22;5970;48.094;11.496;2023-03-01T01:00:06;2.30;93.10
11826;DHT22;5970;48.094;11.496;2023-03-01T01:02:33;2.10;93.30
11826;DHT22;5970;48.094;11.496;2023-03-01T01:05:00;2.20;93.40
11826;DHT22;5970;48.094;11.496;2023-03-01T01:07:26;2.20;93.30
11826;DHT22;5970;48.094;11.496;2023-03-01T01:09:53;2.10;93.20
11826;DHT22;5970;48.094;11.496;2023-03-01T01:12:19;2.20;93.30
11826;DHT22;5970;48.094;11.496;2023-03-01T01:14:46;2.30;93.30
11826;DHT22;5970;48.094;11.496;2023-03-01T01:17:13;2.40;93.30
11826;DHT22;5970;48.094;11.496;2023-03-01T01:19:39;2.30;93.10
11826;DHT22;5970;48.094;11.496;2023-03-01T01:22:06;2.10;93.20
11826;DHT22;5970;48.094;11.496;2023-03-01T01:24:33;2.20;93.60
11826;DHT22;5970;48.094;11.496;2023-03-01T01:26:59;2.30;93.60
11826;DHT22;5970;48.094;11.496;2023-03-01T01:29:26;2.20;93.30
11826;DHT22;5970;48.094;11.496;2023-03-01T01:31:52;2.10;93.20
11826;DHT22;5970;48.094;11.496;2023-03-01T01:34:20;2.20;93.30
11826;DHT22;5970;48.094;11.496;2023-03-01T01:36:48;2.10;93.30
11826;DHT22;5970;48.094;11.496;2023-03-01T01:39:15;2.00;93.40
11826;DHT22;5970;48.094;11.496;2023-03-01T01:41:41;2.10;93.50
11826;DHT22;5970;48.094;11.496;2023-03-01T01:46:38;2.10;93.40
11826;DHT22;5970;48.094;11.496;2023-03-01T01:49:27;2.20;93.40
11826;DHT22;5970;48.094;11.496;2023-03-01T01:52:37;2.30;93.20
11826;DHT22;5970;48.094;11.496;2023-03-01T01:54:46;2.20;93.20
11826;DHT22;5970;48.094;11.496;2023-03-01T01:57:18;2.20;93.30
11826;DHT22;5970;48.094;11.496;2023-03-01T01:59:47;2.20;93.10
11826;DHT22;5970;48.094;11.496;2023-03-01T02:02:15;2.00;93.00
11826;DHT22;5970;48.094;11.496;2023-03-01T02:04:42;1.90;93.20
11826;DHT22;5970;48.094;11.496;2023-03-01T02:07:43;2.00;93.40
11826;DHT22;5970;48.094;11.496;2023-03-01T02:10:02;2.00;93.30
11826;DHT22;5970;48.094;11.496;2023-03-01T02:12:29;2.00;93.30
11826;DHT22;5970;48.094;11.496;2023-03-01T02:14:56;1.90;93.10
11826;DHT22;5970;48.094;11.496;2023-03-01T02:17:22;1.90;93.40
11826;DHT22;5970;48.094;11.496;2023-03-01T02:22:35;1.90;93.50
11826;DHT22;5970;48.094;11.496;2023-03-01T02:27:53;1.80;93.40
11826;DHT22;5970;48.094;11.496;2023-03-01T02:30:18;1.90;93.60
11826;DHT22;5970;48.094;11.496;2023-03-01T02:32:47;1.90;93.50
11826;DHT22;5970;48.094;11.496;2023-03-01T02:35:15;2.00;93.50
11826;DHT22;5970;48.094;11.496;2023-03-01T02:37:42;1.90;93.30
11826;DHT22;5970;48.094;11.496;2023-03-01T02:40:14;1.80;93.20
11826;DHT22;5970;48.094;11.496;2023-03-01T02:42:47;1.80;93.40
11826;DHT22;5970;48.094;11.496;2023-03-01T02:45:16;1.90;93.30
11826;DHT22;5970;48.094;11.496;2023-03-01T02:47:42;1.70;93.30
11826;DHT22;5970;48.094;11.496;2023-03-01T02:50:21;1.80;93.40
11826;DHT22;5970;48.094;11.496;2023-03-01T02:52:56;1.80;93.50
11826;DHT22;5970;48.094;11.496;2023-03-01T02:55:26;1.90;93.50
11826;DHT22;5970;48.094;11.496;2023-03-01T02:57:54;1.90;93.40
11826;DHT22;5970;48.094;11.496;2023-03-01T03:00:23;1.80;93.40
11826;DHT22;5970;48.094;11.496;2023-03-01T03:02:52;1.70;93.40
11826;DHT22;5970;48.094;11.496;2023-03-01T03:05:23;1.90;93.40
11826;DHT22;5970;48.094;11.496;2023-03-01T03:07:50;2.00;93.40
11826;DHT22;5970;48.094;11.496;2023-03-01T03:12:53;1.90;93.30
11826;DHT22;5970;48.094;11.496;2023-03-01T03:15:20;1.80;93.30
11826;DHT22;5970;48.094;11.496;2023-03-01T03:17:47;1.80;93.30
11826;DHT22;5970;48.094;11.496;2023-03-01T03:20:15;1.80;93.00
11826;DHT22;5970;48.094;11.496;2023-03-01T03:22:49;1.80;93.10
11826;DHT22;5970;48.094;11.496;2023-03-01T03:25:16;1.80;93.10
11826;DHT22;5970;48.094;11.496;2023-03-01T03:27:43;1.80;93.20
11826;DHT22;5970;48.094;11.496;2023-03-01T03:30:11;1.80;92.80
11826;DHT22;5970;48.094;11.496;2023-03-01T03:32:39;1.80;92.90
11826;DHT22;5970;48.094;11.496;2023-03-01T03:35:06;1.70;93.10
11826;DHT22;5970;48.094;11.496;2023-03-01T03:37:37;1.70;93.00
11826;DHT22;5970;48.094;11.496;2023-03-01T03:40:22;1.70;93.00
11826;DHT22;5970;48.094;11.496;2023-03-01T03:42:48;1.70;93.30
11826;DHT22;5970;48.094;11.496;2023-03-01T03:45:16;1.60;93.20
11826;DHT22;5970;48.094;11.496;2023-03-01T03:47:43;1.60;93.20
11826;DHT22;5970;48.094;11.496;2023-03-01T03:50:13;1.70;93.20
11826;DHT22;5970;48.094;11.496;2023-03-01T03:52:40;1.70;93.10
11826;DHT22;5970;48.094;11.496;2023-03-01T03:55:07;1.90;93.20
11826;DHT22;5970;48.094;11.496;2023-03-01T03:57:38;1.80;93.10
11826;DHT22;5970;48.094;11.496;2023-03-01T04:00:05;1.80;93.20
11826;DHT22;5970;48.094;11.496;2023-03-01T04:02:32;1.80;93.10
11826;DHT22;5970;48.094;11.496;2023-03-01T04:04:58;1.80;93.00
11826;DHT22;5970;48.094;11.496;2023-03-01T04:07:25;1.80;93.00
11826;DHT22;5970;48.094;11.496;2023-03-01T04:09:51;1.70;93.00
11826;DHT22;5970;48.094;11.496;2023-03-01T04:12:18;1.70;93.20
11826;DHT22;5970;48.094;11.496;2023-03-01T04:14:49;1.70;93.00
11826;DHT22;5970;48.094;11.496;2023-03-01T04:17:16;1.70;93.00
11826;DHT22;5970;48.094;11.496;2023-03-01T04:19:42;1.50;93.10
11826;DHT22;5970;48.094;11.496;2023-03-01T04:22:10;1.50;93.10
11826;DHT22;5970;48.094;11.496;2023-03-01T04:24:37;1.50;93.20
11826;DHT22;5970;48.094;11.496;2023-03-01T04:27:04;1.50;93.20
11826;DHT22;5970;48.094;11.496;2023-03-01T04:29:30;1.60;93.30
11826;DHT22;5970;48.094;11.496;2023-03-01T04:31:57;1.50;93.30
11826;DHT22;5970;48.094;11.496;2023-03-01T04:34:24;1.40;93.40
11826;DHT22;5970;48.094;11.496;2023-03-01T04:36:53;1.50;93.30
11826;DHT22;5970;48.094;11.496;2023-03-01T04:39:20;1.60;93.30
11826;DHT22;5970;48.094;11.496;2023-03-01T04:41:47;1.80;93.20
11826;DHT22;5970;48.094;11.496;2023-03-01T04:44:13;1.70;93.00
11826;DHT22;5970;48.094;11.496;2023-03-01T04:46:40;1.50;93.00
11826;DHT22;5970;48.094;11.496;2023-03-01T04:49:07;1.50;93.10
11826;DHT22;5970;48.094;11.496;2023-03-01T04:51:33;1.50;93.20
11826;DHT22;5970;48.094;11.496;2023-03-01T04:54:00;1.40;93.10
11826;DHT22;5970;48.094;11.496;2023-03-01T04:56:26;1.30;93.20
11826;DHT22;5970;48.094;11.496;2023-03-01T04:58:53;1.40;93.20
11826;DHT22;5970;48.094;11.496;2023-03-01T05:01:20;1.40;93.10
11826;DHT22;5970;48.094;11.496;2023-03-01T05:03:48;1.30;93.20
11826;DHT22;5970;48.094;11.496;2023-03-01T05:06:15;1.40;93.10
11826;DHT22;5970;48.094;11.496;2023-03-01T05:08:42;1.40;93.10
11826;DHT22;5970;48.094;11.496;2023-03-01T05:11:09;1.40;93.20
11826;DHT22;5970;48.094;11.496;2023-03-01T05:13:37;1.40;93.00
11826;DHT22;5970;48.094;11.496;2023-03-01T05:16:05;1.40;93.10
11826;DHT22;5970;48.094;11.496;2023-03-01T05:18:32;1.30;92.90
11826;DHT22;5970;48.094;11.496;2023-03-01T05:21:04;1.40;93.10
11826;DHT22;5970;48.094;11.496;2023-03-01T05:23:32;1.20;93.10
11826;DHT22;5970;48.094;11.496;2023-03-01T05:26:02;1.40;93.20
11826;DHT22;5970;48.094;11.496;2023-03-01T05:28:32;1.30;92.90
11826;DHT22;5970;48.094;11.496;2023-03-01T05:30:59;1.30;93.00
11826;DHT22;5970;48.094;11.496;2023-03-01T05:33:26;1.20;93.10
11826;DHT22;5970;48.094;11.496;2023-03-01T05:35:53;1.20;93.30
11826;DHT22;5970;48.094;11.496;2023-03-01T05:38:20;1.20;93.20
11826;DHT22;5970;48.094;11.496;2023-03-01T05:40:47;1.20;93.30
11826;DHT22;5970;48.094;11.496;2023-03-01T05:43:15;1.10;93.30
11826;DHT22;5970;48.094;11.496;2023-03-01T05:45:42;1.10;93.30
11826;DHT22;5970;48.094;11.496;2023-03-01T05:48:09;1.10;93.50
11826;DHT22;5970;48.094;11.496;2023-03-01T05:50:38;0.90;93.40
11826;DHT22;5970;48.094;11.496;2023-03-01T05:53:15;0.90;93.60
11826;DHT22;5970;48.094;11.496;2023-03-01T05:55:43;1.00;93.60
11826;DHT22;5970;48.094;11.496;2023-03-01T05:58:11;1.10;93.60
11826;DHT22;5970;48.094;11.496;2023-03-01T06:00:40;1.10;93.50
11826;DHT22;5970;48.094;11.496;2023-03-01T06:03:09;1.00;93.40
11826;DHT22;5970;48.094;11.496;2023-03-01T06:05:36;1.00;93.30
11826;DHT22;5970;48.094;11.496;2023-03-01T06:08:02;1.00;93.50
11826;DHT22;5970;48.094;11.496;2023-03-01T06:10:29;1.10;93.50
11826;DHT22;5970;48.094;11.496;2023-03-01T06:12:56;1.00;93.40
11826;DHT22;5970;48.094;11.496;2023-03-01T06:15:23;0.90;93.60
11826;DHT22;5970;48.094;11.496;2023-03-01T06:17:50;0.80;93.50
11826;DHT22;5970;48.094;11.496;2023-03-01T06:20:17;0.70;93.40
11826;DHT22;5970;48.094;11.496;2023-03-01T06:22:45;0.70;93.60
11826;DHT22;5970;48.094;11.496;2023-03-01T06:25:13;0.80;93.60
11826;DHT22;5970;48.094;11.496;2023-03-01T06:27:40;0.80;93.70
11826;DHT22;5970;48.094;11.496;2023-03-01T06:30:08;0.70;93.70
11826;DHT22;5970;48.094;11.496;2023-03-01T06:32:36;0.80;93.70
11826;DHT22;5970;48.094;11.496;2023-03-01T06:35:04;0.80;93.70
11826;DHT22;5970;48.094;11.496;2023-03-01T06:37:30;0.80;93.60
11826;DHT22;5970;48.094;11.496;2023-03-01T06:39:57;0.80;93.60
11826;DHT22;5970;48.094;11.496;2023-03-01T06:42:24;0.90;93.70
11826;DHT22;5970;48.094;11.496;2023-03-01T06:44:50;0.80;93.70
11826;DHT22;5970;48.094;11.496;2023-03-01T06:47:17;0.80;93.60
11826;DHT22;5970;48.094;11.496;2023-03-01T06:49:43;0.90;93.60
11826;DHT22;5970;48.094;11.496;2023-03-01T06:52:10;0.80;93.50
11826;DHT22;5970;48.094;11.496;2023-03-01T06:54:37;0.90;93.50
11826;DHT22;5970;48.094;11.496;2023-03-01T06:57:03;0.90;93.50
11826;DHT22;5970;48.094;11.496;2023-03-01T06:59:30;1.10;93.50
11826;DHT22;5970;48.094;11.496;2023-03-01T07:01:57;1.10;93.50
11826;DHT22;5970;48.094;11.496;2023-03-01T07:04:24;0.90;93.60
11826;DHT22;5970;48.094;11.496;2023-03-01T07:06:51;1.00;93.50
11826;DHT22;5970;48.094;11.496;2023-03-01T07:09:22;1.20;93.50
11826;DHT22;5970;48.094;11.496;2023-03-01T07:11:48;1.20;93.40
11826;DHT22;5970;48.094;11.496;2023-03-01T07:14:15;1.20;93.30
11826;DHT22;5970;48.094;11.496;2023-03-01T07:16:42;1.20;93.30
11826;DHT22;5970;48.094;11.496;2023-03-01T07:19:09;1.20;93.20
11826;DHT22;5970;48.094;11.496;2023-03-01T07:21:35;1.30;93.30
11826;DHT22;5970;48.094;11.496;2023-03-01T07:24:08;1.30;93.30
11826;DHT22;5970;48.094;11.496;2023-03-01T07:26:35;1.40;93.30
11826;DHT22;5970;48.094;11.496;2023-03-01T07:29:02;1.20;93.00
11826;DHT22;5970;48.094;11.496;2023-03-01T07:31:29;1.20;93.10
11826;DHT22;5970;48.094;11.496;2023-03-01T07:33:56;1.10;93.10
11826;DHT22;5970;48.094;11.496;2023-03-01T07:36:22;1.20;93.20
11826;DHT22;5970;48.094;11.496;2023-03-01T07:38:49;1.10;93.30
11826;DHT22;5970;48.094;11.496;2023-03-01T07:41:16;1.20;93.40
11826;DHT22;5970;48.094;11.496;2023-03-01T07:43:43;1.20;93.30
11826;DHT22;5970;48.094;11.496;2023-03-01T07:46:10;1.20;93.30
11826;DHT22;5970;48.094;11.496;2023-03-01T07:48:36;1.30;93.20
11826;DHT22;5970;48.094;11.496;2023-03-01T07:51:04;1.40;93.10
11826;DHT22;5970;48.094;11.496;2023-03-01T07:53:31;1.40;93.00
11826;DHT22;5970;48.094;11.496;2023-03-01T07:56:02;1.30;93.10
11826;DHT22;5970;48.094;11.496;2023-03-01T07:58:28;1.50;93.20
11826;DHT22;5970;48.094;11.496;2023-03-01T08:00:55;1.50;93.10
11826;DHT22;5970;48.094;11.496;2023-03-01T08:03:22;1.50;93.30
11826;DHT22;5970;48.094;11.496;2023-03-01T08:05:48;1.50;93.00
11826;DHT22;5970;48.094;11.496;2023-03-01T08:08:15;1.50;93.20
11826;DHT22;5970;48.094;11.496;2023-03-01T08:10:43;1.60;93.10
11826;DHT22;5970;48.094;11.496;2023-03-01T08:13:10;1.60;93.00
11826;DHT22;5970;48.094;11.496;2023-03-01T08:15:36;1.70;92.90
11826;DHT22;5970;48.094;11.496;2023-03-01T08:18:03;1.80;93.10
11826;DHT22;5970;48.094;11.496;2023-03-01T08:20:29;2.00;93.00
11826;DHT22;5970;48.094;11.496;2023-03-01T08:22:57;2.00;92.80
11826;DHT22;5970;48.094;11.496;2023-03-01T08:25:24;2.00;92.70
11826;DHT22;5970;48.094;11.496;2023-03-01T08:27:50;2.00;92.60
11826;DHT22;5970;48.094;11.496;2023-03-01T08:30:17;2.10;92.70
11826;DHT22;5970;48.094;11.496;2023-03-01T08:32:44;2.30;92.60
11826;DHT22;5970;48.094;11.496;2023-03-01T08:35:11;2.40;92.60
11826;DHT22;5970;48.094;11.496;2023-03-01T08:37:38;2.40;92.40
11826;DHT22;5970;48.094;11.496;2023-03-01T08:40:05;2.20;92.20
11826;DHT22;5970;48.094;11.496;2023-03-01T08:42:36;2.20;92.30
11826;DHT22;5970;48.094;11.496;2023-03-01T08:45:03;2.30;92.50
11826;DHT22;5970;48.094;11.496;2023-03-01T08:47:30;2.20;92.40
11826;DHT22;5970;48.094;11.496;2023-03-01T08:49:56;2.20;92.40
11826;DHT22;5970;48.094;11.496;2023-03-01T08:52:23;2.20;92.50
11826;DHT22;5970;48.094;11.496;2023-03-01T08:54:50;2.50;92.50
11826;DHT22;5970;48.094;11.496;2023-03-01T08:57:17;2.70;92.20
11826;DHT22;5970;48.094;11.496;2023-03-01T08:59:44;2.70;92.20
11826;DHT22;5970;48.094;11.496;2023-03-01T09:02:14;2.80;92.20
11826;DHT22;5970;48.094;11.496;2023-03-01T09:04:41;2.70;91.90
11826;DHT22;5970;48.094;11.496;2023-03-01T09:07:08;2.80;92.00
11826;DHT22;5970;48.094;11.496;2023-03-01T09:09:35;2.70;91.80
11826;DHT22;5970;48.094;11.496;2023-03-01T09:12:02;2.80;92.00
11826;DHT22;5970;48.094;11.496;2023-03-01T09:14:28;2.70;91.80
11826;DHT22;5970;48.094;11.496;2023-03-01T09:16:55;2.80;91.70
11826;DHT22;5970;48.094;11.496;2023-03-01T09:19:22;2.90;91.90
11826;DHT22;5970;48.094;11.496;2023-03-01T09:21:51;3.20;91.80
11826;DHT22;5970;48.094;11.496;2023-03-01T09:24:19;3.20;91.10
11826;DHT22;5970;48.094;11.496;2023-03-01T09:26:46;3.10;91.20
11826;DHT22;5970;48.094;11.496;2023-03-01T09:29:16;3.30;91.40
11826;DHT22;5970;48.094;11.496;2023-03-01T09:31:43;3.40;91.20
11826;DHT22;5970;48.094;11.496;2023-03-01T09:34:09;3.50;91.20
11826;DHT22;5970;48.094;11.496;2023-03-01T09:36:36;3.20;91.40
11826;DHT22;5970;48.094;11.496;2023-03-01T09:39:03;3.30;91.20
11826;DHT22;5970;48.094;11.496;2023-03-01T09:44:01;3.40;90.90
11826;DHT22;5970;48.094;11.496;2023-03-01T09:46:31;3.30;91.00
11826;DHT22;5970;48.094;11.496;2023-03-01T09:49:05;3.40;91.20
11826;DHT22;5970;48.094;11.496;2023-03-01T09:51:35;3.60;91.20
11826;DHT22;5970;48.094;11.496;2023-03-01T09:54:02;3.70;91.10
11826;DHT22;5970;48.094;11.496;2023-03-01T09:56:32;3.60;90.90
11826;DHT22;5970;48.094;11.496;2023-03-01T10:01:53;3.80;90.70
11826;DHT22;5970;48.094;11.496;2023-03-01T10:04:28;3.80;90.80
11826;DHT22;5970;48.094;11.496;2023-03-01T10:09:23;3.50;91.20
11826;DHT22;5970;48.094;11.496;2023-03-01T10:11:50;3.60;91.00
11826;DHT22;5970;48.094;11.496;2023-03-01T10:14:24;3.90;90.90
11826;DHT22;5970;48.094;11.496;2023-03-01T10:17:01;3.90;90.50
11826;DHT22;5970;48.094;11.496;2023-03-01T10:19:33;3.90;90.80
11826;DHT22;5970;48.094;11.496;2023-03-01T10:22:07;3.90;90.60
11826;DHT22;5970;48.094;11.496;2023-03-01T10:24:37;3.80;90.70
11826;DHT22;5970;48.094;11.496;2023-03-01T10:27:05;3.80;90.30
11826;DHT22;5970;48.094;11.496;2023-03-01T10:29:35;3.90;90.60
11826;DHT22;5970;48.094;11.496;2023-03-01T10:32:04;4.00;90.70
11826;DHT22;5970;48.094;11.496;2023-03-01T10:34:33;3.80;90.60
11826;DHT22;5970;48.094;11.496;2023-03-01T10:37:08;3.70;90.50
11826;DHT22;5970;48.094;11.496;2023-03-01T10:39:35;4.10;90.80
11826;DHT22;5970;48.094;11.496;2023-03-01T10:42:03;4.40;90.40
11826;DHT22;5970;48.094;11.496;2023-03-01T10:44:43;4.20;90.20
11826;DHT22;5970;48.094;11.496;2023-03-01T10:47:21;4.30;90.30
11826;DHT22;5970;48.094;11.496;2023-03-01T10:49:52;4.50;90.20
11826;DHT22;5970;48.094;11.496;2023-03-01T10:52:20;4.60;89.90
11826;DHT22;5970;48.094;11.496;2023-03-01T10:54:51;4.50;89.70
11826;DHT22;5970;48.094;11.496;2023-03-01T10:57:24;4.40;90.00
11826;DHT22;5970;48.094;11.496;2023-03-01T11:00:01;4.60;90.20
11826;DHT22;5970;48.094;11.496;2023-03-01T11:02:29;4.70;89.30
11826;DHT22;5970;48.094;11.496;2023-03-01T11:05:18;4.80;89.30
11826;DHT22;5970;48.094;11.496;2023-03-01T11:07:50;5.00;88.70
11826;DHT22;5970;48.094;11.496;2023-03-01T11:10:19;5.50;87.60
11826;DHT22;5970;48.094;11.496;2023-03-01T11:12:46;5.70;87.60
11826;DHT22;5970;48.094;11.496;2023-03-01T11:15:20;6.20;87.30
11826;DHT22;5970;48.094;11.496;2023-03-01T11:17:46;7.40;84.40
11826;DHT22;5970;48.094;11.496;2023-03-01T11:20:29;8.30;83.10
11826;DHT22;5970;48.094;11.496;2023-03-01T11:23:09;9.20;79.70
11826;DHT22;5970;48.094;11.496;2023-03-01T11:25:37;9.10;77.20
11826;DHT22;5970;48.094;11.496;2023-03-01T11:28:04;8.60;77.90
11826;DHT22;5970;48.094;11.496;2023-03-01T11:30:46;8.70;77.80
11826;DHT22;5970;48.094;11.496;2023-03-01T11:41:48;10.70;71.80
11826;DHT22;5970;48.094;11.496;2023-03-01T11:44:25;12.80;71.80
11826;DHT22;5970;48.094;11.496;2023-03-01T11:50:23;15.10;65.00
11826;DHT22;5970;48.094;11.496;2023-03-01T11:52:33;15.60;60.90
11826;DHT22;5970;48.094;11.496;2023-03-01T11:57:42;17.00;56.80
11826;DHT22;5970;48.094;11.496;2023-03-01T12:02:47;16.90;55.40
11826;DHT22;5970;48.094;11.496;2023-03-01T12:10:47;15.10;53.00
11826;DHT22;5970;48.094;11.496;2023-03-01T12:13:23;16.10;54.60
11826;DHT22;5970;48.094;11.496;2023-03-01T12:16:14;16.40;54.70
11826;DHT22;5970;48.094;11.496;2023-03-01T12:21:42;16.80;53.80
11826;DHT22;5970;48.094;11.496;2023-03-01T12:24:22;17.10;52.40
11826;DHT22;5970;48.094;11.496;2023-03-01T12:27:14;16.90;53.60
11826;DHT22;5970;48.094;11.496;2023-03-01T12:30:14;15.50;53.50
11826;DHT22;5970;48.094;11.496;2023-03-01T12:40:23;14.20;56.20
11826;DHT22;5970;48.094;11.496;2023-03-01T12:43:08;13.60;57.70
11826;DHT22;5970;48.094;11.496;2023-03-01T12:45:46;13.80;57.50
11826;DHT22;5970;48.094;11.496;2023-03-01T12:50:48;15.10;56.50
11826;DHT22;5970;48.094;11.496;2023-03-01T12:53:32;15.70;55.30
11826;DHT22;5970;48.094;11.496;2023-03-01T12:56:02;16.20;55.10
11826;DHT22;5970;48.094;11.496;2023-03-01T13:01:24;16.10;52.10
11826;DHT22;5970;48.094;11.496;2023-03-01T13:06:20;14.60;53.40
11826;DHT22;5970;48.094;11.496;2023-03-01T13:09:04;14.10;55.40
11826;DHT22;5970;48.094;11.496;2023-03-01T13:11:32;13.60;55.70
11826;DHT22;5970;48.094;11.496;2023-03-01T13:16:46;13.50;57.90
11826;DHT22;5970;48.094;11.496;2023-03-01T13:19:23;13.70;56.70
11826;DHT22;5970;48.094;11.496;2023-03-01T13:21:51;13.80;56.30
11826;DHT22;5970;48.094;11.496;2023-03-01T13:34:55;14.00;57.20
11826;DHT22;5970;48.094;11.496;2023-03-01T13:37:23;13.70;56.90
11826;DHT22;5970;48.094;11.496;2023-03-01T13:39:52;13.20;57.00
11826;DHT22;5970;48.094;11.496;2023-03-01T13:42:29;13.80;58.40
11826;DHT22;5970;48.094;11.496;2023-03-01T13:44:57;14.10;57.30
11826;DHT22;5970;48.094;11.496;2023-03-01T13:47:24;14.20;56.60
11826;DHT22;5970;48.094;11.496;2023-03-01T13:49:55;13.10;56.50
11826;DHT22;5970;48.094;11.496;2023-03-01T13:52:37;13.30;58.00
11826;DHT22;5970;48.094;11.496;2023-03-01T13:55:52;13.40;57.50
11826;DHT22;5970;48.094;11.496;2023-03-01T13:57:57;13.30;57.90
11826;DHT22;5970;48.094;11.496;2023-03-01T14:00:25;13.70;56.60
11826;DHT22;5970;48.094;11.496;2023-03-01T14:03:40;13.80;55.90
11826;DHT22;5970;48.094;11.496;2023-03-01T14:05:43;14.30;56.60
11826;DHT22;5970;48.094;11.496;2023-03-01T14:08:20;14.50;55.90
11826;DHT22;5970;48.094;11.496;2023-03-01T14:10:51;14.50;55.80
11826;DHT22;5970;48.094;11.496;2023-03-01T14:13:23;14.10;55.80
11826;DHT22;5970;48.094;11.496;2023-03-01T14:16:00;14.40;56.90
11826;DHT22;5970;48.094;11.496;2023-03-01T14:18:36;14.30;56.90
11826;DHT22;5970;48.094;11.496;2023-03-01T14:21:08;14.30;56.70
11826;DHT22;5970;48.094;11.496;2023-03-01T14:23:35;13.70;57.40
11826;DHT22;5970;48.094;11.496;2023-03-01T14:26:05;14.00;57.30
11826;DHT22;5970;48.094;11.496;2023-03-01T14:28:31;14.40;57.10
11826;DHT22;5970;48.094;11.496;2023-03-01T14:31:03;14.60;56.30
11826;DHT22;5970;48.094;11.496;2023-03-01T14:33:55;14.60;56.50
11826;DHT22;5970;48.094;11.496;2023-03-01T14:36:29;14.20;56.30
11826;DHT22;5970;48.094;11.496;2023-03-01T14:38:57;14.00;56.60
11826;DHT22;5970;48.094;11.496;2023-03-01T14:41:34;13.70;57.40
11826;DHT22;5970;48.094;11.496;2023-03-01T14:44:05;13.80;57.80
11826;DHT22;5970;48.094;11.496;2023-03-01T14:46:36;13.40;57.60
11826;DHT22;5970;48.094;11.496;2023-03-01T14:49:04;13.20;57.70
11826;DHT22;5970;48.094;11.496;2023-03-01T14:51:39;13.00;58.50
11826;DHT22;5970;48.094;11.496;2023-03-01T14:54:18;12.80;58.40
11826;DHT22;5970;48.094;11.496;2023-03-01T14:56:46;12.20;59.60
11826;DHT22;5970;48.094;11.496;2023-03-01T14:59:13;11.80;60.90
11826;DHT22;5970;48.094;11.496;2023-03-01T15:01:40;11.80;60.60
11826;DHT22;5970;48.094;11.496;2023-03-01T15:04:10;11.50;61.10
11826;DHT22;5970;48.094;11.496;2023-03-01T15:06:37;11.40;61.60
11826;DHT22;5970;48.094;11.496;2023-03-01T15:09:04;11.40;62.30
11826;DHT22;5970;48.094;11.496;2023-03-01T15:11:31;11.80;61.60
11826;DHT22;5970;48.094;11.496;2023-03-01T15:13:58;11.90;61.70
11826;DHT22;5970;48.094;11.496;2023-03-01T15:16:32;11.60;61.50
11826;DHT22;5970;48.094;11.496;2023-03-01T15:19:01;11.30;62.00
11826;DHT22;5970;48.094;11.496;2023-03-01T15:21:33;11.20;63.30
11826;DHT22;5970;48.094;11.496;2023-03-01T15:26:49;10.00;65.10
11826;DHT22;5970;48.094;11.496;2023-03-01T15:29:18;9.90;66.70
11826;DHT22;5970;48.094;11.496;2023-03-01T15:32:01;9.60;66.90
11826;DHT22;5970;48.094;11.496;2023-03-01T15:34:31;9.40;68.30
11826;DHT22;5970;48.094;11.496;2023-03-01T15:36:59;9.00;69.00
11826;DHT22;5970;48.094;11.496;2023-03-01T15:39:30;8.60;70.40
11826;DHT22;5970;48.094;11.496;2023-03-01T15:41:57;8.50;71.50
11826;DHT22;5970;48.094;11.496;2023-03-01T15:44:34;8.60;72.00
11826;DHT22;5970;48.094;11.496;2023-03-01T15:47:26;8.40;71.90
11826;DHT22;5970;48.094;11.496;2023-03-01T15:49:53;8.20;72.50
11826;DHT22;5970;48.094;11.496;2023-03-01T15:52:25;7.90;73.30
11826;DHT22;5970;48.094;11.496;2023-03-01T15:54:59;7.70;73.80
11826;DHT22;5970;48.094;11.496;2023-03-01T15:57:26;7.70;74.30
11826;DHT22;5970;48.094;11.496;2023-03-01T15:59:53;7.60;74.50
11826;DHT22;5970;48.094;11.496;2023-03-01T16:02:20;7.40;75.40
11826;DHT22;5970;48.094;11.496;2023-03-01T16:04:47;7.30;76.50
11826;DHT22;5970;48.094;11.496;2023-03-01T16:07:17;7.30;76.20
11826;DHT22;5970;48.094;11.496;2023-03-01T16:09:43;7.20;76.30
11826;DHT22;5970;48.094;11.496;2023-03-01T16:12:14;7.20;76.80
11826;DHT22;5970;48.094;11.496;2023-03-01T16:14:41;7.20;77.00
11826;DHT22;5970;48.094;11.496;2023-03-01T16:17:08;7.20;76.90
11826;DHT22;5970;48.094;11.496;2023-03-01T16:19:37;7.30;77.10
11826;DHT22;5970;48.094;11.496;2023-03-01T16:22:04;6.90;77.70
11826;DHT22;5970;48.094;11.496;2023-03-01T16:24:30;7.00;78.30
11826;DHT22;5970;48.094;11.496;2023-03-01T16:26:57;7.00;78.40
11826;DHT22;5970;48.094;11.496;2023-03-01T16:29:24;7.00;78.40
11826;DHT22;5970;48.094;11.496;2023-03-01T16:31:50;7.20;78.40
11826;DHT22;5970;48.094;11.496;2023-03-01T16:34:17;7.10;78.40
11826;DHT22;5970;48.094;11.496;2023-03-01T16:36:44;6.90;79.10
11826;DHT22;5970;48.094;11.496;2023-03-01T16:39:10;7.00;79.10
11826;DHT22;5970;48.094;11.496;2023-03-01T16:41:37;6.90;79.40
11826;DHT22;5970;48.094;11.496;2023-03-01T16:44:04;6.90;79.60
11826;DHT22;5970;48.094;11.496;2023-03-01T16:46:30;6.80;80.20
11826;DHT22;5970;48.094;11.496;2023-03-01T16:48:57;6.80;80.30
11826;DHT22;5970;48.094;11.496;2023-03-01T16:51:24;6.40;81.20
11826;DHT22;5970;48.094;11.496;2023-03-01T16:53:50;6.50;81.40
11826;DHT22;5970;48.094;11.496;2023-03-01T16:56:17;6.30;81.60
11826;DHT22;5970;48.094;11.496;2023-03-01T16:58:44;6.20;81.50
11826;DHT22;5970;48.094;11.496;2023-03-01T17:01:15;6.20;81.60
11826;DHT22;5970;48.094;11.496;2023-03-01T17:03:42;6.10;82.00
11826;DHT22;5970;48.094;11.496;2023-03-01T17:06:11;5.90;82.60
11826;DHT22;5970;48.094;11.496;2023-03-01T17:08:38;5.70;83.40
11826;DHT22;5970;48.094;11.496;2023-03-01T17:11:23;5.50;83.90